Time;durP1;ratioP1;P1;durP2;ratioP2;P2;SDS_P1;SDS_P2;PMS_P1;PMS_P2;Temp;Humidity;BMP_temperature;BMP_pressure;BME280_temperature;BME280_humidity;BME280_pressure;Samples;Min_cycle;Max_cycle;Signal;HPM_P1;HPM_P2
2022/07/28 00:02:03;;;;;;;3.60;0.68;;;;;;;18.74;87.85;100744.13;5048769;28;20060;-80
2022/07/28 00:04:29;;;;;;;3.17;0.75;;;;;;;18.73;88.77;100743.31;5049868;28;20025;-80
2022/07/28 00:06:54;;;;;;;3.20;1.00;;;;;;;18.63;89.15;100740.69;5050025;28;20021;-80
2022/07/28 00:09:20;;;;;;;2.35;0.68;;;;;;;18.60;89.63;100737.50;5049807;28;20025;-80
2022/07/28 00:11:45;;;;;;;3.33;1.73;;;;;;;18.66;89.80;100736.06;5049756;28;20497;-80
2022/07/28 00:14:10;;;;;;;1.45;0.65;;;;;;;18.68;89.83;100744.72;5049863;28;20021;-80
2022/07/28 00:16:36;;;;;;;1.55;0.77;;;;;;;18.65;90.47;100737.91;5049824;28;20589;-80
2022/07/28 00:19:01;;;;;;;2.05;0.70;;;;;;;18.67;89.95;100737.75;5049627;28;20450;-80
2022/07/28 00:21:27;;;;;;;2.05;1.30;;;;;;;18.49;89.16;100733.22;5049603;28;20404;-80
2022/07/28 00:23:52;;;;;;;2.45;0.75;;;;;;;18.56;89.22;100741.44;5049745;28;20025;-80
2022/07/28 00:26:17;;;;;;;1.63;0.90;;;;;;;18.47;89.28;100737.03;5049585;28;20498;-80
2022/07/28 00:28:43;;;;;;;1.77;0.70;;;;;;;18.59;89.64;100736.66;5049327;28;20028;-80
2022/07/28 00:31:08;;;;;;;4.32;0.75;;;;;;;18.55;88.51;100737.94;5049568;28;20155;-80
2022/07/28 00:33:33;;;;;;;1.10;0.80;;;;;;;18.65;88.45;100735.25;5049373;28;20371;-80
2022/07/28 00:35:59;;;;;;;1.88;1.40;;;;;;;18.67;89.54;100727.94;5049475;28;20021;-80
2022/07/28 00:38:24;;;;;;;2.70;0.82;;;;;;;18.72;89.11;100736.34;5047605;28;20394;-80
2022/07/28 00:43:34;;;;;;;2.85;0.70;;;;;;;18.66;90.21;100728.09;5049575;28;20113;-80
2022/07/28 00:45:59;;;;;;;2.05;0.82;;;;;;;18.71;89.47;100733.81;5049271;28;20465;-80
2022/07/28 00:48:24;;;;;;;1.58;0.60;;;;;;;18.73;89.67;100723.84;5049199;28;20091;-80
2022/07/28 00:50:51;;;;;;;2.70;0.93;;;;;;;18.72;89.09;100727.50;5049227;28;20039;-80
2022/07/28 00:53:16;;;;;;;1.58;0.63;;;;;;;18.57;90.87;100727.16;5049164;28;20029;-80
2022/07/28 00:55:42;;;;;;;1.63;0.77;;;;;;;18.56;90.66;100733.47;5049318;28;20289;-80
2022/07/28 00:58:07;;;;;;;1.15;0.52;;;;;;;18.63;90.73;100730.06;5047756;28;20493;-80
2022/07/28 01:00:33;;;;;;;2.47;0.95;;;;;;;18.70;88.32;100727.66;5048981;28;20451;-80
2022/07/28 01:02:58;;;;;;;2.15;0.77;;;;;;;18.68;88.56;100716.34;5049103;28;20031;-80
2022/07/28 01:05:29;;;;;;;1.17;0.65;;;;;;;18.72;89.52;100723.03;5048948;28;20039;-80
2022/07/28 01:07:55;;;;;;;1.88;0.60;;;;;;;18.67;90.24;100722.63;5049117;28;20021;-80
2022/07/28 01:10:39;;;;;;;2.60;0.63;;;;;;;18.72;90.65;100719.50;5048717;28;20474;-80
2022/07/28 01:13:30;;;;;;;4.22;0.98;;;;;;;18.54;91.49;100717.69;5047687;28;20392;-80
2022/07/28 01:16:03;;;;;;;3.08;0.85;;;;;;;18.53;91.76;100718.66;5048958;28;20036;-80
2022/07/28 01:18:35;;;;;;;3.17;0.80;;;;;;;18.61;91.33;100715.25;5048825;28;20055;-80
2022/07/28 01:21:04;;;;;;;1.50;0.60;;;;;;;18.57;91.41;100709.38;5048717;28;20025;-80
2022/07/28 01:23:32;;;;;;;1.73;0.60;;;;;;;18.61;92.25;100713.41;5048786;28;20021;-80
2022/07/28 01:26:33;;;;;;;2.33;0.93;;;;;;;18.70;92.11;100706.38;5048854;28;20021;-80
2022/07/28 01:29:02;;;;;;;0.68;0.45;;;;;;;18.63;91.47;100700.81;5048578;28;20254;-80
2022/07/28 01:31:36;;;;;;;2.63;0.70;;;;;;;18.65;92.07;100707.81;5047316;28;20028;-80
2022/07/28 01:34:08;;;;;;;2.35;0.82;;;;;;;18.69;92.65;100709.19;5048652;28;20025;-80
2022/07/28 01:36:52;;;;;;;3.40;1.33;;;;;;;18.80;91.84;100695.72;5048625;28;20029;-80
2022/07/28 01:39:19;;;;;;;1.00;0.70;;;;;;;18.74;92.28;100697.13;5048529;28;20028;-80
2022/07/28 01:41:46;;;;;;;2.85;0.77;;;;;;;18.80;92.13;100685.06;5048633;28;20030;-80
2022/07/28 01:44:19;;;;;;;2.22;0.77;;;;;;;18.92;92.05;100689.19;5048460;28;20021;-80
2022/07/28 01:46:46;;;;;;;2.08;1.02;;;;;;;18.72;92.10;100699.09;5047510;28;20045;-80
2022/07/28 01:49:13;;;;;;;1.40;0.80;;;;;;;18.57;92.41;100696.09;5048982;28;20048;-80
2022/07/28 01:51:40;;;;;;;2.38;0.70;;;;;;;18.73;91.25;100686.63;5051973;28;20032;-81
2022/07/28 01:54:07;;;;;;;0.82;0.63;;;;;;;18.79;91.54;100694.00;5051886;28;20101;-80
2022/07/28 01:56:33;;;;;;;2.60;0.93;;;;;;;18.78;91.17;100687.03;5052028;28;20029;-80
2022/07/28 01:59:04;;;;;;;3.05;1.00;;;;;;;18.86;91.15;100689.78;5051744;28;20037;-80
2022/07/28 02:01:35;;;;;;;1.52;0.75;;;;;;;18.89;92.04;100683.31;5052045;28;20021;-80
2022/07/28 02:04:03;;;;;;;2.07;0.63;;;;;;;18.81;92.70;100686.72;5051678;28;20017;-80
2022/07/28 02:06:30;;;;;;;3.72;1.05;;;;;;;18.80;93.39;100690.41;5051777;28;20025;-80
2022/07/28 02:08:57;;;;;;;2.15;1.15;;;;;;;18.74;93.58;100678.50;5051791;28;20024;-80
2022/07/28 02:11:38;;;;;;;1.38;0.70;;;;;;;18.78;93.81;100682.53;5051741;28;20205;-80
2022/07/28 02:14:08;;;;;;;;;;;;;;;18.93;93.93;100680.19;5052238;28;20023;-80
2022/07/28 02:16:33;;;;;;;3.38;1.00;;;;;;;18.84;93.96;100681.13;5051652;28;19916;-80
2022/07/28 02:19:00;;;;;;;1.38;0.73;;;;;;;18.82;94.42;100683.09;5050028;28;20020;-80
2022/07/28 02:21:28;;;;;;;1.85;1.00;;;;;;;18.74;94.25;100678.50;5051564;28;20496;-80
2022/07/28 02:23:54;;;;;;;1.95;0.80;;;;;;;18.80;94.35;100677.09;5051424;28;20025;-80
2022/07/28 02:26:27;;;;;;;2.47;0.85;;;;;;;18.88;95.01;100673.66;5051348;28;20390;-80
2022/07/28 02:28:55;;;;;;;1.42;0.80;;;;;;;18.78;94.25;100676.38;5051362;28;20033;-80
2022/07/28 02:31:28;;;;;;;2.72;0.77;;;;;;;18.86;94.39;100672.97;5051396;28;20021;-81
2022/07/28 02:33:57;;;;;;;1.75;0.60;;;;;;;18.82;94.63;100667.13;5051400;28;20029;-80
2022/07/28 02:36:30;;;;;;;0.60;0.60;;;;;;;18.86;94.92;100668.50;5051416;28;20160;-80
2022/07/28 02:39:14;;;;;;;2.45;0.90;;;;;;;18.88;94.09;100677.16;5049664;28;20021;-80
2022/07/28 02:41:42;;;;;;;1.65;0.80;;;;;;;18.82;94.22;100672.47;5051723;28;20025;-80
2022/07/28 02:44:19;;;;;;;1.10;0.75;;;;;;;18.84;93.93;100667.81;5051243;28;20021;-80
2022/07/28 02:46:50;;;;;;;3.33;0.80;;;;;;;18.80;93.22;100658.47;5051121;28;20496;-80
2022/07/28 02:49:20;;;;;;;1.63;0.98;;;;;;;18.81;92.80;100658.28;5051191;28;20032;-81
2022/07/28 02:51:49;;;;;;;2.03;0.90;;;;;;;18.83;93.09;100658.16;5050982;28;20025;-80
2022/07/28 02:54:17;;;;;;;1.98;1.02;;;;;;;18.77;93.34;100664.88;5050933;28;20021;-80
2022/07/28 02:56:46;;;;;;;3.35;0.90;;;;;;;18.81;92.96;100660.97;5050937;28;20084;-80
2022/07/28 02:59:13;;;;;;;2.33;0.80;;;;;;;18.72;93.13;100655.66;5050845;28;20033;-80
2022/07/28 03:01:41;;;;;;;2.28;0.77;;;;;;;18.75;94.37;100658.03;5050742;28;20048;-80
2022/07/28 03:04:08;;;;;;;2.13;0.82;;;;;;;18.76;93.74;100657.03;5050771;28;20021;-80
2022/07/28 03:06:34;;;;;;;1.75;0.90;;;;;;;18.78;93.42;100650.59;5050895;28;20534;-80
2022/07/28 03:08:59;;;;;;;5.35;1.40;;;;;;;18.74;92.90;100654.56;5050673;28;20033;-80
2022/07/28 03:11:26;;;;;;;1.73;0.70;;;;;;;18.75;94.12;100650.06;5050844;28;20017;-80
2022/07/28 03:13:51;;;;;;;2.30;1.25;;;;;;;18.77;93.43;100646.25;5051009;28;20128;-81
2022/07/28 03:16:16;;;;;;;1.33;0.88;;;;;;;18.80;93.65;100643.34;5050634;28;20056;-80
2022/07/28 03:18:42;;;;;;;2.38;0.93;;;;;;;18.81;92.85;100644.16;5049286;28;20032;-80
2022/07/28 03:21:07;;;;;;;4.32;1.50;;;;;;;18.72;88.01;100640.56;5050643;28;20025;-80
2022/07/28 03:23:38;;;;;;;1.63;0.95;;;;;;;18.85;86.32;100636.72;5050500;28;20025;-81
2022/07/28 03:26:26;;;;;;;4.40;1.17;;;;;;;18.87;79.27;100637.41;5050542;28;20081;-81
2022/07/28 03:28:53;;;;;;;2.20;1.00;;;;;;;18.76;76.60;100641.94;5050552;28;20029;-80
2022/07/28 03:31:19;;;;;;;3.72;1.10;;;;;;;18.86;75.98;100633.06;5049222;28;20025;-80
2022/07/28 03:33:46;;;;;;;2.90;0.90;;;;;;;18.91;74.79;100634.28;5050159;28;20072;-80
2022/07/28 03:36:15;;;;;;;1.55;1.00;;;;;;;19.05;73.97;100624.09;5050074;28;20033;-80
2022/07/28 03:39:03;;;;;;;1.80;1.00;;;;;;;18.86;73.85;100630.41;5050178;28;20417;-80
2022/07/28 03:41:31;;;;;;;4.43;1.30;;;;;;;18.85;73.37;100632.22;5050308;28;20028;-80
2022/07/28 03:43:57;;;;;;;1.45;0.70;;;;;;;19.04;72.81;100636.56;5050103;28;20032;-80
2022/07/28 03:46:24;;;;;;;2.38;0.90;;;;;;;18.89;73.36;100630.94;5050314;28;20032;-80
2022/07/28 03:48:49;;;;;;;2.92;1.08;;;;;;;18.91;73.37;100638.78;5049040;28;20093;-80
2022/07/28 03:51:15;;;;;;;2.10;1.15;;;;;;;18.96;71.71;100632.00;5050240;28;20056;-80
2022/07/28 03:53:40;;;;;;;1.98;1.00;;;;;;;18.86;72.40;100635.72;5050080;28;20052;-80
2022/07/28 03:56:06;;;;;;;5.32;1.02;;;;;;;18.82;73.95;100635.22;5048848;28;20057;-80
2022/07/28 03:58:31;;;;;;;1.30;0.80;;;;;;;18.83;74.72;100631.53;5049949;28;20036;-80
2022/07/28 04:00:57;;;;;;;2.33;1.05;;;;;;;18.74;74.19;100629.75;5049835;28;20024;-80
2022/07/28 04:03:23;;;;;;;2.92;0.77;;;;;;;18.78;74.05;100633.81;5050154;28;20033;-80
2022/07/28 04:05:48;;;;;;;2.28;0.82;;;;;;;18.83;73.29;100631.53;5049813;28;20108;-80
2022/07/28 04:08:14;;;;;;;0.88;0.75;;;;;;;18.77;72.57;100630.31;5048553;28;20033;-80
2022/07/28 04:10:39;;;;;;;2.70;1.00;;;;;;;18.84;73.55;100627.91;5046020;27;20033;-80
2022/07/28 04:13:04;;;;;;;2.92;1.00;;;;;;;18.66;74.20;100629.69;5049046;28;20064;-80
2022/07/28 04:15:31;;;;;;;2.15;0.70;;;;;;;18.63;77.12;100629.00;5048908;28;20032;-80
2022/07/28 04:17:57;;;;;;;3.70;0.93;;;;;;;18.72;76.20;100631.75;5048932;28;20497;-80
2022/07/28 04:20:23;;;;;;;4.43;0.70;;;;;;;18.70;76.70;100621.28;5048524;28;20023;-80
2022/07/28 04:22:49;;;;;;;6.18;1.02;;;;;;;18.67;76.62;100626.88;5048414;28;20505;-80
2022/07/28 04:25:18;;;;;;;5.90;0.95;;;;;;;18.60;78.25;100626.66;5049713;28;20029;-80
2022/07/28 04:27:44;;;;;;;1.83;0.90;;;;;;;18.66;74.12;100624.38;5049513;28;20025;-80
2022/07/28 04:30:13;;;;;;;3.72;1.15;;;;;;;18.68;72.98;100625.06;5048075;28;20127;-81
2022/07/28 04:32:39;;;;;;;6.07;1.02;;;;;;;18.59;72.85;100616.16;5049390;28;20029;-80
2022/07/28 04:35:06;;;;;;;7.72;1.52;;;;;;;18.68;71.21;100612.63;5049534;28;20021;-80
2022/07/28 04:37:32;;;;;;;1.83;0.82;;;;;;;18.54;71.39;100619.28;5049261;28;20021;-80
2022/07/28 04:39:57;;;;;;;2.92;1.13;;;;;;;18.68;71.31;100614.41;5049317;28;20040;-80
2022/07/28 04:42:22;;;;;;;5.38;1.17;;;;;;;18.80;71.00;100608.75;5049496;28;20027;-80
2022/07/28 04:44:48;;;;;;;2.45;0.80;;;;;;;18.73;71.95;100612.97;5049780;28;20385;-81
2022/07/28 04:47:13;;;;;;;2.95;1.10;;;;;;;18.90;72.23;100618.47;5049271;28;20378;-80
2022/07/28 04:49:39;;;;;;;2.45;0.73;;;;;;;18.88;73.85;100613.31;5049182;28;20393;-80
2022/07/28 04:52:07;;;;;;;3.03;0.80;;;;;;;18.93;73.63;100613.66;5049164;28;20044;-80
2022/07/28 04:54:32;;;;;;;1.75;0.70;;;;;;;18.95;74.40;100611.69;5049295;28;20031;-80
2022/07/28 04:56:58;;;;;;;4.03;1.00;;;;;;;18.92;76.08;100608.53;5049394;28;20021;-80
2022/07/28 04:59:23;;;;;;;3.17;0.88;;;;;;;18.92;76.29;100609.34;5048877;28;20056;-80
2022/07/28 05:01:48;;;;;;;2.63;0.57;;;;;;;19.06;75.54;100609.81;5049057;28;20056;-81
2022/07/28 05:04:14;;;;;;;2.80;0.90;;;;;;;18.96;76.24;100609.88;5048986;28;20484;-80
2022/07/28 05:06:40;;;;;;;4.55;1.10;;;;;;;19.05;76.23;100613.44;5049075;28;20021;-80
2022/07/28 05:09:05;;;;;;;4.30;1.10;;;;;;;19.08;75.76;100607.81;5048952;28;20108;-80
2022/07/28 05:11:30;;;;;;;5.63;1.13;;;;;;;19.14;75.75;100604.53;5049024;28;20052;-80
2022/07/28 05:13:56;;;;;;;7.55;1.20;;;;;;;19.15;76.35;100615.00;5049039;28;20035;-80
2022/07/28 05:16:21;;;;;;;4.05;1.02;;;;;;;18.88;77.61;100612.47;5048884;28;20424;-80
2022/07/28 05:18:46;;;;;;;3.42;1.10;;;;;;;19.12;76.46;100611.84;5048770;28;20120;-80
2022/07/28 05:21:12;;;;;;;4.50;1.30;;;;;;;19.13;75.67;100613.50;5048798;28;20116;-80
2022/07/28 05:23:37;;;;;;;3.13;1.25;;;;;;;19.18;75.87;100619.22;5048897;28;20478;-80
2022/07/28 05:26:03;;;;;;;6.28;1.20;;;;;;;19.28;75.24;100613.78;5048888;28;20032;-81
2022/07/28 05:28:29;;;;;;;1.95;1.00;;;;;;;19.37;75.37;100608.38;5047685;28;20039;-80
2022/07/28 05:30:54;;;;;;;3.25;1.13;;;;;;;19.27;76.78;100610.25;5048596;28;20081;-80
2022/07/28 05:33:19;;;;;;;8.00;1.20;;;;;;;19.42;76.00;100614.03;5048541;28;20029;-80
2022/07/28 05:35:51;;;;;;;7.28;0.98;;;;;;;19.42;77.09;100611.38;5047389;28;20033;-81
2022/07/28 05:38:16;;;;;;;8.07;1.88;;;;;;;19.39;75.08;100609.03;5048572;28;20029;-80
2022/07/28 05:40:41;;;;;;;4.22;1.02;;;;;;;19.42;76.52;100605.22;5048652;28;20166;-80
2022/07/28 05:43:07;;;;;;;4.55;1.05;;;;;;;19.54;76.20;100616.44;5048257;28;20065;-80
2022/07/28 05:45:32;;;;;;;3.28;1.17;;;;;;;19.40;75.73;100612.53;5048587;28;20081;-80
2022/07/28 05:47:58;;;;;;;4.93;1.48;;;;;;;19.58;75.97;100607.13;5048739;28;20117;-81
2022/07/28 05:50:26;;;;;;;2.35;1.00;;;;;;;19.55;77.06;100616.28;5047119;28;20029;-81
2022/07/28 05:52:51;;;;;;;3.13;1.20;;;;;;;19.56;76.90;100617.94;5048464;28;20481;-81
2022/07/28 05:55:17;;;;;;;4.10;1.05;;;;;;;19.61;76.29;100609.50;5048457;28;20033;-80
2022/07/28 05:57:42;;;;;;;2.83;1.30;;;;;;;19.68;77.23;100612.34;5048094;28;20467;-81
2022/07/28 06:00:11;;;;;;;4.80;1.23;;;;;;;19.67;75.82;100603.53;5048295;28;20048;-80
2022/07/28 06:02:38;;;;;;;5.60;1.20;;;;;;;19.68;74.93;100604.38;5048308;28;20060;-80
2022/07/28 06:05:07;;;;;;;3.17;1.27;;;;;;;19.74;76.63;100609.91;5048409;28;20027;-81
2022/07/28 06:07:33;;;;;;;2.47;1.02;;;;;;;19.52;77.61;100611.28;5048289;28;20027;-80
2022/07/28 06:09:59;;;;;;;5.82;1.23;;;;;;;19.62;76.05;100611.97;5048138;28;20025;-80
2022/07/28 06:12:24;;;;;;;4.22;1.30;;;;;;;19.87;75.07;100603.34;5048296;28;20060;-80
2022/07/28 06:14:50;;;;;;;13.05;2.05;;;;;;;19.91;75.79;100599.34;5048223;28;20021;-81
2022/07/28 06:17:15;;;;;;;3.67;1.00;;;;;;;20.00;75.00;100606.38;5048441;28;20021;-81
2022/07/28 06:19:41;;;;;;;6.00;1.92;;;;;;;19.61;75.62;100609.50;5047925;28;20148;-80
2022/07/28 06:22:07;;;;;;;8.35;1.40;;;;;;;19.91;74.59;100610.84;5048278;28;20074;-80
2022/07/28 06:24:32;;;;;;;3.72;1.38;;;;;;;19.87;75.06;100612.16;5048300;28;20017;-80
2022/07/28 06:27:00;;;;;;;3.92;1.20;;;;;;;19.98;74.74;100600.34;5048070;28;20104;-81
2022/07/28 06:29:25;;;;;;;5.00;1.10;;;;;;;20.30;73.62;100596.97;5048016;28;20029;-80
2022/07/28 06:31:50;;;;;;;2.75;1.08;;;;;;;20.54;72.25;100606.84;5047933;28;20044;-80
2022/07/28 06:34:16;;;;;;;8.23;1.30;;;;;;;20.53;72.19;100605.19;5047841;28;20077;-81
2022/07/28 06:36:41;;;;;;;3.75;1.10;;;;;;;20.78;71.38;100606.06;5050689;28;20104;-81
2022/07/28 06:39:07;;;;;;;4.03;2.13;;;;;;;20.85;70.88;100608.91;5051247;28;20115;-81
2022/07/28 06:41:32;;;;;;;4.50;1.17;;;;;;;21.01;70.41;100594.75;5051073;28;20048;-80
2022/07/28 06:43:57;;;;;;;3.45;1.10;;;;;;;21.29;69.26;100599.72;5051313;28;20025;-80
2022/07/28 06:46:23;;;;;;;3.65;1.27;;;;;;;21.16;69.26;100595.72;5051286;28;20084;-81
2022/07/28 06:48:48;;;;;;;7.88;1.38;;;;;;;21.27;68.66;100601.69;5051228;28;20025;-81
2022/07/28 06:51:17;;;;;;;4.25;1.30;;;;;;;21.26;67.94;100598.19;5051219;28;20017;-81
2022/07/28 06:53:44;;;;;;;8.05;1.75;;;;;;;20.71;70.36;100593.56;5051164;28;20033;-81
2022/07/28 06:56:09;;;;;;;5.85;1.23;;;;;;;20.99;69.84;100594.06;5051040;28;20100;-81
2022/07/28 06:58:34;;;;;;;3.70;1.52;;;;;;;21.03;69.82;100600.75;5051143;28;20120;-81
2022/07/28 07:01:01;;;;;;;5.75;1.67;;;;;;;20.87;70.60;100606.06;5050829;28;20032;-81
2022/07/28 07:03:26;;;;;;;5.28;1.42;;;;;;;20.88;70.99;100599.75;5050863;28;20036;-81
2022/07/28 07:05:52;;;;;;;4.97;1.17;;;;;;;21.12;69.96;100601.56;5050928;28;20029;-81
2022/07/28 07:08:19;;;;;;;4.10;1.27;;;;;;;21.11;69.86;100597.22;5050930;28;20029;-81
2022/07/28 07:10:44;;;;;;;4.85;1.48;;;;;;;21.19;70.13;100600.72;5050658;28;20029;-81
2022/07/28 07:13:10;;;;;;;10.18;2.22;;;;;;;21.28;70.13;100598.88;5050832;28;20356;-80
2022/07/28 07:15:35;;;;;;;2.30;1.30;;;;;;;21.20;70.64;100601.56;5051024;28;20021;-81
2022/07/28 07:18:01;;;;;;;4.05;1.20;;;;;;;21.44;68.19;100599.88;5050716;28;20040;-81
2022/07/28 07:20:27;;;;;;;5.80;1.95;;;;;;;21.38;68.58;100599.50;5050698;28;20330;-80
2022/07/28 07:22:52;;;;;;;4.45;1.60;;;;;;;22.85;64.19;100593.66;5050646;28;20139;-81
2022/07/28 07:25:18;;;;;;;2.88;1.00;;;;;;;23.03;62.65;100601.41;5050476;28;20108;-81
2022/07/28 07:27:44;;;;;;;4.70;1.30;;;;;;;22.97;62.14;100608.28;5050685;28;20071;-81
2022/07/28 07:30:10;;;;;;;3.45;1.15;;;;;;;23.38;61.12;100604.41;5050446;28;20043;-80
2022/07/28 07:32:37;;;;;;;5.80;1.90;;;;;;;22.81;62.45;100597.69;5050432;28;20033;-81
2022/07/28 07:35:03;;;;;;;3.58;1.60;;;;;;;24.76;56.37;100595.59;5050320;27;20029;-82
2022/07/28 07:37:31;;;;;;;4.53;1.13;;;;;;;25.52;52.60;100600.34;5050262;28;20029;-81
2022/07/28 07:40:00;;;;;;;5.85;1.05;;;;;;;25.08;53.25;100604.13;5050290;28;20036;-81
2022/07/28 07:42:25;;;;;;;2.55;1.25;;;;;;;25.28;53.55;100596.28;5050359;28;20029;-81
2022/07/28 07:44:51;;;;;;;3.55;1.00;;;;;;;25.31;52.10;100599.38;5050287;28;20029;-81
2022/07/28 07:47:17;;;;;;;6.47;1.42;;;;;;;24.96;52.82;100601.16;5049073;28;20028;-82
2022/07/28 07:49:42;;;;;;;4.70;1.13;;;;;;;25.16;52.19;100601.31;5050541;28;20104;-82
2022/07/28 07:52:07;;;;;;;3.40;1.20;;;;;;;25.49;52.06;100589.97;5050372;28;20029;-81
2022/07/28 07:54:33;;;;;;;4.07;1.23;;;;;;;26.23;50.00;100599.25;5050095;28;20029;-81
2022/07/28 07:56:58;;;;;;;3.42;1.48;;;;;;;26.79;48.17;100590.88;5050185;28;20048;-81
2022/07/28 07:59:24;;;;;;;5.50;1.10;;;;;;;26.73;48.70;100596.25;5049613;28;20115;-81
2022/07/28 08:01:54;;;;;;;7.03;1.40;;;;;;;26.64;48.50;100595.63;5049868;28;20151;-82
2022/07/28 08:04:20;;;;;;;11.13;1.67;;;;;;;26.52;48.17;100598.91;5049945;28;20032;-81
2022/07/28 08:06:51;;;;;;;5.90;1.15;;;;;;;26.47;49.03;100592.47;5050291;28;20033;-82
2022/07/28 08:09:16;;;;;;;3.08;1.13;;;;;;;26.30;49.06;100595.56;5049950;28;20436;-82
2022/07/28 08:11:42;;;;;;;1.60;0.95;;;;;;;26.43;48.72;100602.81;5049806;28;20021;-82
2022/07/28 08:14:07;;;;;;;4.15;1.20;;;;;;;25.89;49.45;100600.97;5050093;28;20104;-82
2022/07/28 08:16:33;;;;;;;3.70;1.40;;;;;;;25.36;50.67;100600.66;5050083;28;20070;-82
2022/07/28 08:18:58;;;;;;;6.85;1.30;;;;;;;25.37;51.18;100599.63;5049552;28;20378;-81
2022/07/28 08:21:25;;;;;;;2.42;1.05;;;;;;;25.46;51.29;100593.06;5049710;28;20032;-81
2022/07/28 08:23:51;;;;;;;6.90;1.40;;;;;;;24.86;52.67;100600.66;5049884;28;20017;-81
2022/07/28 08:26:17;;;;;;;3.97;1.05;;;;;;;24.98;51.96;100600.94;5049657;28;20060;-81
2022/07/28 08:28:42;;;;;;;5.15;1.48;;;;;;;24.84;53.82;100606.22;5048518;28;20104;-81
2022/07/28 08:31:08;;;;;;;5.38;2.10;;;;;;;24.97;52.46;100596.63;5049631;28;20457;-81
2022/07/28 08:33:33;;;;;;;3.45;1.40;;;;;;;24.91;53.14;100600.91;5049326;28;20948;-81
2022/07/28 08:35:59;;;;;;;6.45;1.45;;;;;;;25.16;52.44;100595.94;5048338;28;20017;-81
2022/07/28 08:38:25;;;;;;;7.38;1.50;;;;;;;25.31;51.72;100604.75;5049463;28;20525;-81
2022/07/28 08:40:55;;;;;;;10.60;1.77;;;;;;;25.21;52.40;100600.72;5049498;28;20029;-81
2022/07/28 08:43:33;;;;;;;5.50;1.52;;;;;;;24.86;52.68;100595.28;5049379;28;20117;-81
2022/07/28 08:46:00;;;;;;;6.18;1.23;;;;;;;24.99;52.70;100594.56;5048164;28;20025;-81
2022/07/28 08:48:35;;;;;;;3.38;1.20;;;;;;;24.64;53.74;100597.97;5049175;28;20070;-81
2022/07/28 08:51:08;;;;;;;3.83;1.10;;;;;;;24.81;53.47;100595.88;5049484;28;20044;-81
2022/07/28 08:53:35;;;;;;;5.00;1.88;;;;;;;24.57;53.94;100586.34;5049666;28;20037;-81
2022/07/28 08:56:05;;;;;;;5.65;1.35;;;;;;;24.79;54.06;100587.16;5049047;28;20473;-81
2022/07/28 08:58:32;;;;;;;4.65;1.50;;;;;;;24.66;53.87;100587.88;5048779;28;20033;-81
2022/07/28 09:00:58;;;;;;;6.50;1.52;;;;;;;24.77;53.47;100591.91;5048860;28;20021;-81
2022/07/28 09:03:25;;;;;;;4.03;1.45;;;;;;;24.79;54.40;100584.50;5049027;28;20423;-81
2022/07/28 09:05:51;;;;;;;5.97;1.60;;;;;;;24.84;53.18;100587.44;5049036;28;20021;-81
2022/07/28 09:08:18;;;;;;;9.18;1.65;;;;;;;24.63;53.78;100590.97;5049095;28;20023;-81
2022/07/28 09:10:43;;;;;;;5.75;1.38;;;;;;;24.68;53.79;100585.00;5049255;28;20025;-81
2022/07/28 09:13:09;;;;;;;5.72;1.23;;;;;;;25.01;53.20;100587.16;5047862;28;20029;-81
2022/07/28 09:15:36;;;;;;;9.52;2.00;;;;;;;25.04;52.52;100582.22;5048771;28;20455;-81
2022/07/28 09:18:01;;;;;;;13.57;1.27;;;;;;;25.40;51.48;100581.25;5049248;28;20062;-82
2022/07/28 09:20:28;;;;;;;2.85;1.20;;;;;;;25.58;51.14;100587.97;5048914;28;20081;-82
2022/07/28 09:22:56;;;;;;;7.03;1.25;;;;;;;25.92;49.85;100585.25;5048942;28;20021;-82
2022/07/28 09:25:22;;;;;;;10.65;2.03;;;;;;;26.38;49.01;100581.03;5049021;28;20033;-82
2022/07/28 09:27:47;;;;;;;5.15;1.42;;;;;;;26.49;48.27;100577.75;5048823;28;20077;-82
2022/07/28 09:30:12;;;;;;;5.10;1.10;;;;;;;26.57;47.52;100582.13;5048696;28;20117;-82
2022/07/28 09:32:38;;;;;;;4.38;1.63;;;;;;;26.95;46.60;100581.53;5048982;28;20500;-82
2022/07/28 09:35:17;;;;;;;8.48;1.35;;;;;;;27.08;45.99;100578.03;5048601;28;20036;-82
2022/07/28 09:37:42;;;;;;;10.13;1.15;;;;;;;27.50;45.12;100579.41;5048706;28;20122;-82
2022/07/28 09:40:12;;;;;;;5.28;1.30;;;;;;;27.77;44.20;100575.81;5048600;28;20075;-82
2022/07/28 09:42:46;;;;;;;5.03;0.75;;;;;;;27.64;44.85;100582.91;5048582;28;20108;-82
2022/07/28 09:45:12;;;;;;;6.95;1.38;;;;;;;28.11;43.04;100573.81;5048942;28;20098;-82
2022/07/28 09:47:39;;;;;;;7.50;1.10;;;;;;;27.86;43.46;100569.13;5048428;28;20108;-82
2022/07/28 09:50:05;;;;;;;12.35;1.58;;;;;;;28.15;43.43;100575.88;5048349;28;20036;-82
2022/07/28 09:52:32;;;;;;;10.00;1.58;;;;;;;28.53;42.56;100569.63;5048678;28;20029;-82
2022/07/28 09:55:08;;;;;;;4.32;1.15;;;;;;;29.04;41.12;100570.47;5048455;28;20065;-82
2022/07/28 09:57:35;;;;;;;3.22;1.02;;;;;;;29.47;40.32;100575.06;5048287;28;20496;-82
2022/07/28 10:00:02;;;;;;;6.53;1.35;;;;;;;29.28;39.95;100574.22;5048443;28;20387;-82
2022/07/28 10:02:32;;;;;;;3.00;1.15;;;;;;;29.29;39.68;100575.88;5048401;28;20021;-82
2022/07/28 10:04:59;;;;;;;5.40;1.17;;;;;;;29.40;39.74;100577.00;5048576;28;20021;-81
2022/07/28 10:07:27;;;;;;;7.90;0.95;;;;;;;29.06;39.62;100579.19;5048392;28;20032;-82
2022/07/28 10:10:06;;;;;;;3.60;0.93;;;;;;;28.68;39.91;100572.84;5048426;28;20104;-82
2022/07/28 10:12:36;;;;;;;7.57;1.38;;;;;;;28.37;40.22;100575.53;5051778;28;20032;-82
2022/07/28 10:18:00;;;;;;;5.88;1.25;;;;;;;28.96;38.53;100573.47;5051754;28;20043;-81
2022/07/28 10:20:29;;;;;;;3.05;1.15;;;;;;;29.72;36.88;100571.47;5051646;28;20410;-81
2022/07/28 10:23:02;;;;;;;6.03;1.27;;;;;;;29.78;37.81;100570.56;5051596;28;20096;-82
2022/07/28 10:25:30;;;;;;;2.70;0.90;;;;;;;28.98;37.61;100568.66;5051717;28;20500;-81
2022/07/28 10:27:58;;;;;;;2.13;0.80;;;;;;;28.96;38.72;100573.47;5051447;28;20021;-81
2022/07/28 10:30:24;;;;;;;3.78;0.80;;;;;;;28.37;39.27;100570.94;5051597;28;20081;-82
2022/07/28 10:32:53;;;;;;;5.85;1.10;;;;;;;28.18;39.78;100567.34;5051312;28;20025;-82
2022/07/28 10:35:19;;;;;;;6.00;0.77;;;;;;;28.09;39.78;100574.03;5051634;28;20116;-82
2022/07/28 10:38:04;;;;;;;3.13;0.80;;;;;;;28.00;40.32;100570.78;5051431;28;20104;-81
2022/07/28 10:40:40;;;;;;;4.45;1.08;;;;;;;26.88;40.25;100578.03;5051102;28;20558;-81
2022/07/28 10:43:07;;;;;;;4.63;0.73;;;;;;;27.05;41.06;100575.72;5051096;28;20025;-82
2022/07/28 10:45:37;;;;;;;4.90;1.13;;;;;;;26.71;41.26;100572.22;5051226;28;20029;-81
2022/07/28 10:48:06;;;;;;;4.15;1.73;;;;;;;26.64;41.66;100572.22;5051295;28;20061;-81
2022/07/28 10:50:33;;;;;;;4.57;1.02;;;;;;;26.87;41.52;100574.50;5051172;28;20497;-81
2022/07/28 10:53:00;;;;;;;5.38;0.85;;;;;;;26.97;41.55;100576.78;5051363;28;20029;-81
2022/07/28 10:55:31;;;;;;;3.72;1.13;;;;;;;26.89;41.84;100575.13;5051129;28;20033;-81
2022/07/28 10:58:15;;;;;;;5.95;1.17;;;;;;;27.27;41.36;100566.41;5050847;28;20025;-82
2022/07/28 11:00:46;;;;;;;5.10;1.00;;;;;;;27.43;40.35;100569.69;5050900;28;20573;-81
2022/07/28 11:03:35;;;;;;;6.65;0.80;;;;;;;27.94;39.69;100568.09;5051122;28;20103;-81
2022/07/28 11:06:39;;;;;;;4.53;0.88;;;;;;;27.59;38.61;100568.41;5051043;28;20430;-81
2022/07/28 11:09:16;;;;;;;2.20;0.80;;;;;;;28.00;38.22;100570.78;5050936;28;20489;-81
2022/07/28 11:11:42;;;;;;;10.20;0.90;;;;;;;27.58;39.05;100564.06;5051091;28;20066;-81
2022/07/28 11:14:32;;;;;;;2.92;0.90;;;;;;;27.73;38.43;100558.41;5050884;28;20017;-82
2022/07/28 11:17:03;;;;;;;6.05;1.00;;;;;;;27.75;37.73;100567.13;5050761;28;20520;-81
2022/07/28 11:19:42;;;;;;;6.28;0.93;;;;;;;27.29;38.82;100561.66;5050394;28;20052;-81
2022/07/28 11:22:13;;;;;;;3.85;1.13;;;;;;;26.92;39.38;100568.50;5050591;28;20487;-82
2022/07/28 11:24:57;;;;;;;4.80;1.30;;;;;;;26.72;39.34;100565.81;5050773;28;20056;-82
2022/07/28 11:30:08;;;;;;;4.18;1.20;;;;;;;26.38;40.42;100556.81;5050628;28;20049;-81
2022/07/28 11:32:54;;;;;;;7.15;1.55;;;;;;;26.41;40.96;100555.59;5050676;28;20029;-81
2022/07/28 11:35:37;;;;;;;5.00;1.08;;;;;;;26.00;41.22;100559.22;5050493;28;20517;-81
2022/07/28 11:38:03;;;;;;;3.15;0.93;;;;;;;25.95;41.42;100562.53;5050456;28;20113;-81